Time;durP1;ratioP1;P1;durP2;ratioP2;P2;SDS_P1;SDS_P2;PMS_P1;PMS_P2;Temp;Humidity;BMP_temperature;BMP_pressure;BME280_temperature;BME280_humidity;BME280_pressure;Samples;Min_cycle;Max_cycle;Signal;HPM_P1;HPM_P2
2023/10/05 00:01:05;;;;;;;11.93;10.82;;;;;;;;;;5003053;28;20037;-75
2023/10/05 00:03:31;;;;;;;10.90;9.95;;;;;;;;;;4996626;28;20122;-74
2023/10/05 00:06:05;;;;;;;11.88;10.77;;;;;;;;;;5005878;28;20532;-75
2023/10/05 00:08:34;;;;;;;11.52;10.52;;;;;;;;;;5009898;28;20083;-75
2023/10/05 00:11:00;;;;;;;12.65;11.45;;;;;;;;;;4995913;28;20049;-75
2023/10/05 00:13:26;;;;;;;12.45;10.93;;;;;;;;;;5002393;28;20053;-75
2023/10/05 00:15:52;;;;;;;11.73;10.75;;;;;;;;;;5006863;28;20033;-75
2023/10/05 00:18:20;;;;;;;12.60;10.77;;;;;;;;;;5013395;28;20132;-75
2023/10/05 00:20:48;;;;;;;11.90;10.80;;;;;;;;;;4998475;28;20510;-75
2023/10/05 00:23:14;;;;;;;12.52;11.43;;;;;;;;;;5010363;28;20308;-75
2023/10/05 00:25:39;;;;;;;13.38;10.48;;;;;;;;;;5006959;28;20088;-75
2023/10/05 00:28:09;;;;;;;12.38;11.25;;;;;;;;;;4998457;28;20033;-74
2023/10/05 00:30:35;;;;;;;12.35;11.05;;;;;;;;;;5000441;28;20049;-74
2023/10/05 00:33:04;;;;;;;12.00;10.80;;;;;;;;;;5025793;28;20040;-74
2023/10/05 00:35:33;;;;;;;11.80;10.70;;;;;;;;;;5012445;28;20037;-75
2023/10/05 00:38:14;;;;;;;12.10;10.98;;;;;;;;;;5011251;28;20036;-76
2023/10/05 00:40:47;;;;;;;12.32;10.40;;;;;;;;;;5018098;28;20460;-75
2023/10/05 00:45:46;;;;;;;13.15;10.40;;;;;;;;;;5006109;28;20061;-75
2023/10/05 00:50:59;;;;;;;13.18;11.35;;;;;;;;;;5004532;28;20038;-75
2023/10/05 00:53:30;;;;;;;12.17;11.07;;;;;;;;;;5015260;28;20063;-75
2023/10/05 00:56:09;;;;;;;11.20;10.20;;;;;;;;;;5010269;28;20293;-75
2023/10/05 00:58:38;;;;;;;12.23;10.98;;;;;;;;;;5009512;28;20056;-75
2023/10/05 01:01:14;;;;;;;12.02;10.85;;;;;;;;;;5010671;28;20041;-75
2023/10/05 01:06:39;;;;;;;11.45;10.38;;;;;;;;;;5013709;28;20100;-75
2023/10/05 01:09:07;;;;;;;11.38;9.80;;;;;;;;;;5013183;28;20038;-75
2023/10/05 01:11:43;;;;;;;11.40;10.20;;;;;;;;;;4999780;28;20087;-75
2023/10/05 01:14:10;;;;;;;13.05;11.73;;;;;;;;;;5002145;28;20029;-76
2023/10/05 01:16:36;;;;;;;12.45;11.25;;;;;;;;;;5001834;28;20030;-76
2023/10/05 01:19:07;;;;;;;11.80;10.68;;;;;;;;;;5002968;28;20056;-75
2023/10/05 01:21:34;;;;;;;11.95;10.80;;;;;;;;;;5003120;28;20050;-75
2023/10/05 01:24:00;;;;;;;13.32;10.85;;;;;;;;;;5006493;28;20046;-75
2023/10/05 01:26:26;;;;;;;14.90;9.98;;;;;;;;;;4999276;28;20050;-75
2023/10/05 01:28:52;;;;;;;11.68;10.60;;;;;;;;;;4998103;28;20112;-75
2023/10/05 01:31:17;;;;;;;11.48;10.13;;;;;;;;;;5000212;28;20042;-75
2023/10/05 01:33:43;;;;;;;11.43;10.55;;;;;;;;;;4996106;28;20117;-75
2023/10/05 01:36:11;;;;;;;11.73;10.65;;;;;;;;;;5001562;28;20584;-75
2023/10/05 01:38:40;;;;;;;11.30;10.40;;;;;;;;;;4996346;28;20041;-75
2023/10/05 01:41:07;;;;;;;12.00;10.43;;;;;;;;;;5002784;28;20033;-75
2023/10/05 01:43:34;;;;;;;12.00;10.88;;;;;;;;;;5001568;28;20118;-75
2023/10/05 01:46:00;;;;;;;11.88;10.77;;;;;;;;;;5005802;28;20041;-76
2023/10/05 01:48:28;;;;;;;12.02;10.77;;;;;;;;;;5003114;28;20026;-75
2023/10/05 01:50:57;;;;;;;12.48;11.43;;;;;;;;;;5002629;28;20389;-75
2023/10/05 01:53:22;;;;;;;11.70;10.57;;;;;;;;;;4998905;28;20069;-75
2023/10/05 01:55:49;;;;;;;12.07;10.95;;;;;;;;;;4999912;28;20066;-75
2023/10/05 01:58:24;;;;;;;11.38;10.13;;;;;;;;;;4998347;28;20125;-75
2023/10/05 02:00:50;;;;;;;11.35;10.45;;;;;;;;;;4998593;28;20045;-75
2023/10/05 02:03:18;;;;;;;11.55;10.35;;;;;;;;;;5005522;28;20116;-75
2023/10/05 02:05:46;;;;;;;12.20;11.05;;;;;;;;;;5003658;28;20769;-75
2023/10/05 02:08:14;;;;;;;12.23;11.00;;;;;;;;;;5002774;28;20515;-75
2023/10/05 02:10:46;;;;;;;12.07;11.07;;;;;;;;;;5004021;28;20033;-75
2023/10/05 02:13:12;;;;;;;12.05;10.82;;;;;;;;;;4995646;28;20060;-75
2023/10/05 02:15:39;;;;;;;16.02;11.07;;;;;;;;;;4994220;28;20034;-75
2023/10/05 02:18:18;;;;;;;11.30;10.30;;;;;;;;;;4992873;28;20148;-75
2023/10/05 02:20:45;;;;;;;10.45;9.65;;;;;;;;;;5002269;28;20029;-75
2023/10/05 02:23:49;;;;;;;11.48;10.35;;;;;;;;;;4992219;28;20033;-75
2023/10/05 02:26:20;;;;;;;12.27;10.98;;;;;;;;;;5007669;28;20131;-75
2023/10/05 02:28:48;;;;;;;13.63;10.90;;;;;;;;;;4997543;28;20038;-75
2023/10/05 02:31:15;;;;;;;11.70;10.40;;;;;;;;;;5017273;28;20510;-75
2023/10/05 02:33:43;;;;;;;12.48;10.20;;;;;;;;;;4995861;28;20034;-75
2023/10/05 02:36:17;;;;;;;13.55;10.73;;;;;;;;;;4994784;28;20041;-75
2023/10/05 02:38:49;;;;;;;12.20;10.77;;;;;;;;;;5002274;28;20092;-75
2023/10/05 02:41:17;;;;;;;11.77;10.57;;;;;;;;;;4997036;28;20500;-75
2023/10/05 02:43:52;;;;;;;12.02;10.65;;;;;;;;;;4999897;28;20608;-75
2023/10/05 02:46:20;;;;;;;11.68;10.68;;;;;;;;;;5001476;28;20052;-75
2023/10/05 02:48:46;;;;;;;11.68;10.48;;;;;;;;;;4995144;28;20697;-75
2023/10/05 02:51:13;;;;;;;11.57;10.45;;;;;;;;;;5002466;28;20113;-75
2023/10/05 02:53:46;;;;;;;13.02;11.25;;;;;;;;;;4995691;28;20045;-75
2023/10/05 02:56:20;;;;;;;12.05;10.43;;;;;;;;;;4994575;28;20030;-75
2023/10/05 02:58:49;;;;;;;11.35;10.18;;;;;;;;;;5011496;28;20045;-75
2023/10/05 03:01:15;;;;;;;10.10;9.32;;;;;;;;;;5005416;28;20037;-75
2023/10/05 03:03:43;;;;;;;13.20;10.27;;;;;;;;;;5001462;28;20061;-75
2023/10/05 03:06:10;;;;;;;10.82;9.88;;;;;;;;;;5006114;28;20033;-75
2023/10/05 03:08:36;;;;;;;12.10;10.77;;;;;;;;;;5003129;28;20044;-75
2023/10/05 03:11:04;;;;;;;11.50;10.48;;;;;;;;;;5004073;28;20044;-75
2023/10/05 03:13:32;;;;;;;11.70;10.60;;;;;;;;;;5018469;28;20113;-76
2023/10/05 03:15:59;;;;;;;13.02;11.68;;;;;;;;;;4999806;28;20125;-76
2023/10/05 03:18:25;;;;;;;11.77;10.77;;;;;;;;;;4999138;28;20038;-75
2023/10/05 03:20:51;;;;;;;11.52;10.63;;;;;;;;;;5004540;28;20038;-75
2023/10/05 03:23:17;;;;;;;12.82;10.23;;;;;;;;;;5001357;28;20052;-75
2023/10/05 03:25:45;;;;;;;10.10;9.27;;;;;;;;;;4995858;28;20125;-75
2023/10/05 03:28:11;;;;;;;12.38;11.25;;;;;;;;;;4997249;28;20033;-75
2023/10/05 03:30:37;;;;;;;10.65;9.82;;;;;;;;;;4994079;28;20146;-75
2023/10/05 03:33:04;;;;;;;12.25;10.98;;;;;;;;;;5002358;28;20140;-75
2023/10/05 03:35:33;;;;;;;16.70;11.38;;;;;;;;;;5007050;28;20026;-75
2023/10/05 03:38:00;;;;;;;11.67;10.67;;;;;;;;;;5010595;28;20037;-75
2023/10/05 03:40:30;;;;;;;11.63;10.57;;;;;;;;;;5002445;28;20331;-75
2023/10/05 03:42:59;;;;;;;12.13;10.95;;;;;;;;;;5003092;28;20038;-75
2023/10/05 03:45:31;;;;;;;11.98;10.90;;;;;;;;;;5001273;28;20113;-75
2023/10/05 03:47:57;;;;;;;12.07;10.82;;;;;;;;;;5005226;28;20618;-75
2023/10/05 03:50:24;;;;;;;16.25;11.70;;;;;;;;;;5000322;28;20112;-75
2023/10/05 03:52:51;;;;;;;13.20;10.70;;;;;;;;;;5004686;28;20061;-76
2023/10/05 03:55:18;;;;;;;13.68;11.48;;;;;;;;;;5005076;28;20025;-75
2023/10/05 03:57:45;;;;;;;13.02;11.60;;;;;;;;;;5008922;28;20041;-75
2023/10/05 04:00:31;;;;;;;11.93;10.80;;;;;;;;;;4998057;28;20096;-75
2023/10/05 04:02:57;;;;;;;12.93;10.40;;;;;;;;;;5019860;28;20054;-75
2023/10/05 04:05:23;;;;;;;11.18;10.02;;;;;;;;;;5011703;28;20056;-75
2023/10/05 04:07:51;;;;;;;12.32;11.10;;;;;;;;;;5034172;28;20046;-76
2023/10/05 04:10:23;;;;;;;12.75;11.55;;;;;;;;;;5034971;28;20042;-76
2023/10/05 04:12:51;;;;;;;11.77;10.77;;;;;;;;;;5037569;28;20030;-77
2023/10/05 04:15:20;;;;;;;12.30;10.70;;;;;;;;;;5027518;28;20030;-77
2023/10/05 04:17:49;;;;;;;11.93;10.75;;;;;;;;;;5009221;28;20080;-75
2023/10/05 04:20:27;;;;;;;10.50;9.63;;;;;;;;;;5003221;28;20060;-74
2023/10/05 04:22:53;;;;;;;12.93;11.45;;;;;;;;;;5001759;28;20515;-75
2023/10/05 04:25:19;;;;;;;11.32;10.43;;;;;;;;;;4997199;28;20245;-75
2023/10/05 04:27:46;;;;;;;11.85;10.68;;;;;;;;;;5001489;28;20022;-75
2023/10/05 04:30:15;;;;;;;10.93;9.98;;;;;;;;;;5005370;28;20034;-75
2023/10/05 04:32:40;;;;;;;11.63;10.27;;;;;;;;;;5006365;28;20041;-75
2023/10/05 04:35:20;;;;;;;12.13;10.43;;;;;;;;;;4995384;28;20040;-75
2023/10/05 04:37:47;;;;;;;;;;;;;;;;;;5000937;28;20046;-75
2023/10/05 04:40:15;;;;;;;11.77;10.27;;;;;;;;;;5000999;28;19949;-75
2023/10/05 04:42:41;;;;;;;11.80;10.82;;;;;;;;;;4999608;28;20026;-75
2023/10/05 04:45:14;;;;;;;11.00;10.10;;;;;;;;;;4994332;28;20088;-75
2023/10/05 04:47:39;;;;;;;12.07;10.90;;;;;;;;;;4998472;28;20546;-75
2023/10/05 04:50:13;;;;;;;11.90;10.80;;;;;;;;;;4995912;28;20033;-75
2023/10/05 04:52:39;;;;;;;13.57;11.40;;;;;;;;;;5003639;28;20072;-75
2023/10/05 04:58:14;;;;;;;12.35;10.85;;;;;;;;;;4997569;28;20062;-75
2023/10/05 05:03:33;;;;;;;11.52;10.52;;;;;;;;;;5002158;28;20034;-75
2023/10/05 05:08:32;;;;;;;12.05;10.88;;;;;;;;;;5003737;28;20061;-75
2023/10/05 05:11:00;;;;;;;11.25;10.07;;;;;;;;;;4999158;28;20026;-76
2023/10/05 05:13:27;;;;;;;12.07;10.97;;;;;;;;;;5000448;28;20503;-75
2023/10/05 05:15:54;;;;;;;12.23;10.80;;;;;;;;;;5000958;28;20046;-76
2023/10/05 05:18:23;;;;;;;11.30;10.30;;;;;;;;;;5002566;28;20026;-76
2023/10/05 05:20:49;;;;;;;14.02;10.88;;;;;;;;;;5001735;28;20045;-76
2023/10/05 05:23:16;;;;;;;12.55;10.52;;;;;;;;;;4997217;28;20030;-76
2023/10/05 05:25:44;;;;;;;12.32;10.45;;;;;;;;;;4999328;28;20037;-76
2023/10/05 05:28:09;;;;;;;11.80;10.80;;;;;;;;;;5030306;28;20550;-76
2023/10/05 05:30:40;;;;;;;11.10;10.10;;;;;;;;;;5029264;28;20064;-76
2023/10/05 05:33:09;;;;;;;14.35;10.70;;;;;;;;;;5031932;28;20033;-75
2023/10/05 05:35:43;;;;;;;13.45;10.73;;;;;;;;;;5031020;28;20093;-76
2023/10/05 05:38:09;;;;;;;11.75;10.65;;;;;;;;;;5015513;28;20089;-75
2023/10/05 05:40:36;;;;;;;15.15;10.07;;;;;;;;;;5005992;28;20040;-75
2023/10/05 05:43:08;;;;;;;13.23;11.85;;;;;;;;;;5003725;28;20038;-76
2023/10/05 05:45:35;;;;;;;12.30;11.25;;;;;;;;;;5000248;28;20046;-75
2023/10/05 05:48:01;;;;;;;11.95;10.95;;;;;;;;;;5002775;28;20036;-75
2023/10/05 05:50:29;;;;;;;12.13;10.25;;;;;;;;;;4999499;28;20451;-76
2023/10/05 05:52:56;;;;;;;11.00;10.00;;;;;;;;;;5003030;28;20484;-75
2023/10/05 05:55:22;;;;;;;11.85;10.25;;;;;;;;;;5001990;28;20491;-75
2023/10/05 05:57:50;;;;;;;11.50;10.38;;;;;;;;;;5004050;28;20044;-75
2023/10/05 06:00:18;;;;;;;12.10;11.00;;;;;;;;;;4989545;28;20175;-76
2023/10/05 06:02:44;;;;;;;12.27;11.18;;;;;;;;;;5004416;28;20029;-75
2023/10/05 06:05:13;;;;;;;11.68;10.20;;;;;;;;;;5001221;28;20038;-75
2023/10/05 06:07:42;;;;;;;11.57;10.63;;;;;;;;;;5005539;28;20053;-76
2023/10/05 06:10:12;;;;;;;11.43;10.30;;;;;;;;;;5001761;28;20038;-75
2023/10/05 06:12:43;;;;;;;10.43;9.63;;;;;;;;;;5007599;28;20407;-76
2023/10/05 06:15:10;;;;;;;10.18;9.38;;;;;;;;;;5004471;28;20045;-75
2023/10/05 06:17:36;;;;;;;10.63;9.48;;;;;;;;;;4999869;28;20396;-75
2023/10/05 06:20:13;;;;;;;11.20;10.30;;;;;;;;;;5008241;28;20041;-75
2023/10/05 06:22:39;;;;;;;11.27;10.15;;;;;;;;;;4999578;28;20399;-75
2023/10/05 06:25:05;;;;;;;11.75;10.27;;;;;;;;;;4997623;28;20033;-75
2023/10/05 06:27:30;;;;;;;11.50;10.40;;;;;;;;;;4996829;28;20822;-75
2023/10/05 06:29:56;;;;;;;10.52;9.68;;;;;;;;;;4999863;28;20038;-75
2023/10/05 06:32:22;;;;;;;11.38;10.30;;;;;;;;;;4990557;28;20026;-75
2023/10/05 06:34:48;;;;;;;10.25;9.25;;;;;;;;;;4993660;28;20040;-75
2023/10/05 06:37:13;;;;;;;10.68;9.68;;;;;;;;;;4996468;28;20868;-76
2023/10/05 06:39:39;;;;;;;10.65;9.50;;;;;;;;;;4991435;28;20117;-75
2023/10/05 06:42:06;;;;;;;10.50;9.50;;;;;;;;;;4991617;28;20034;-75
2023/10/05 06:44:34;;;;;;;10.65;9.65;;;;;;;;;;5004743;28;20043;-75
2023/10/05 06:46:59;;;;;;;10.50;9.60;;;;;;;;;;4993697;28;20026;-75
2023/10/05 06:49:27;;;;;;;10.65;9.68;;;;;;;;;;4988930;28;20026;-75
2023/10/05 06:51:52;;;;;;;10.80;9.90;;;;;;;;;;4991696;28;20634;-75
2023/10/05 06:54:18;;;;;;;11.55;10.23;;;;;;;;;;4991378;28;20065;-76
2023/10/05 06:56:48;;;;;;;10.52;9.73;;;;;;;;;;4991745;28;20034;-76
2023/10/05 06:59:14;;;;;;;10.50;9.18;;;;;;;;;;4991613;28;20045;-75
2023/10/05 07:01:39;;;;;;;10.57;9.57;;;;;;;;;;4993413;28;20029;-75
2023/10/05 07:04:08;;;;;;;12.05;9.73;;;;;;;;;;4992120;28;20085;-75
2023/10/05 07:06:33;;;;;;;10.75;9.77;;;;;;;;;;4996407;28;20064;-76
2023/10/05 07:08:59;;;;;;;10.68;9.70;;;;;;;;;;5009940;28;20037;-76
2023/10/05 07:11:25;;;;;;;10.07;9.30;;;;;;;;;;5015451;28;20323;-75
2023/10/05 07:13:51;;;;;;;10.38;9.38;;;;;;;;;;5004177;28;20033;-76
2023/10/05 07:16:17;;;;;;;10.48;9.68;;;;;;;;;;4996703;28;20038;-75
2023/10/05 07:18:43;;;;;;;10.27;9.38;;;;;;;;;;4990986;28;20442;-75
2023/10/05 07:21:09;;;;;;;9.88;9.07;;;;;;;;;;4987285;28;20044;-75
2023/10/05 07:23:39;;;;;;;10.48;9.48;;;;;;;;;;4996500;28;20153;-75
2023/10/05 07:26:09;;;;;;;10.70;9.60;;;;;;;;;;4990964;28;20042;-75
2023/10/05 07:28:35;;;;;;;10.93;10.02;;;;;;;;;;4994284;28;20030;-76
2023/10/05 07:31:03;;;;;;;11.60;10.07;;;;;;;;;;4992447;28;20046;-76
2023/10/05 07:33:33;;;;;;;10.23;9.38;;;;;;;;;;4990599;28;20030;-76
2023/10/05 07:36:00;;;;;;;10.70;9.70;;;;;;;;;;4992801;28;20034;-75
2023/10/05 07:38:28;;;;;;;11.73;9.60;;;;;;;;;;4992238;28;20031;-75
2023/10/05 07:40:54;;;;;;;10.80;9.93;;;;;;;;;;4993278;28;20115;-76
2023/10/05 07:43:20;;;;;;;11.18;10.32;;;;;;;;;;4996349;28;20038;-76
2023/10/05 07:45:46;;;;;;;10.52;9.73;;;;;;;;;;4995885;28;20041;-76
2023/10/05 07:48:11;;;;;;;12.80;10.80;;;;;;;;;;4996848;28;20030;-77
2023/10/05 07:50:38;;;;;;;10.88;9.95;;;;;;;;;;4987066;28;20042;-76
2023/10/05 07:53:04;;;;;;;11.50;10.25;;;;;;;;;;4980188;28;20034;-76
2023/10/05 07:55:31;;;;;;;10.85;9.82;;;;;;;;;;4986614;28;20528;-76
2023/10/05 07:57:57;;;;;;;11.15;9.93;;;;;;;;;;4999726;28;20042;-76
2023/10/05 08:00:23;;;;;;;11.18;10.15;;;;;;;;;;4993884;28;20121;-77
2023/10/05 08:02:48;;;;;;;10.77;9.75;;;;;;;;;;4991940;28;20404;-76
2023/10/05 08:05:17;;;;;;;11.07;10.07;;;;;;;;;;4994133;28;20033;-76
2023/10/05 08:07:44;;;;;;;10.43;9.45;;;;;;;;;;4995360;28;20028;-76
2023/10/05 08:10:18;;;;;;;10.40;9.45;;;;;;;;;;4993369;28;20042;-75
2023/10/05 08:12:44;;;;;;;14.73;9.88;;;;;;;;;;4998962;28;20107;-76
2023/10/05 08:15:12;;;;;;;10.02;9.23;;;;;;;;;;4994548;28;22338;-75
2023/10/05 08:17:39;;;;;;;10.50;9.52;;;;;;;;;;4994188;28;20408;-76
2023/10/05 08:20:06;;;;;;;10.60;9.80;;;;;;;;;;4988651;28;20060;-76
2023/10/05 08:22:32;;;;;;;11.32;10.10;;;;;;;;;;4992709;28;20491;-76
2023/10/05 08:25:00;;;;;;;10.57;9.68;;;;;;;;;;4994144;28;20042;-76
2023/10/05 08:27:26;;;;;;;10.63;9.82;;;;;;;;;;4993103;28;20551;-76
2023/10/05 08:29:52;;;;;;;10.70;9.80;;;;;;;;;;4991927;28;20038;-76
2023/10/05 08:32:24;;;;;;;11.23;10.13;;;;;;;;;;4992039;28;20068;-76
2023/10/05 08:34:50;;;;;;;10.63;9.60;;;;;;;;;;4993654;28;20038;-76
2023/10/05 08:37:19;;;;;;;13.23;10.02;;;;;;;;;;4991518;28;20042;-76
2023/10/05 08:39:46;;;;;;;11.57;9.80;;;;;;;;;;4994327;28;20100;-76
2023/10/05 08:42:14;;;;;;;10.65;9.20;;;;;;;;;;4990500;28;20788;-75
2023/10/05 08:44:41;;;;;;;12.53;9.90;;;;;;;;;;4993381;28;20034;-76
2023/10/05 08:47:12;;;;;;;9.85;9.00;;;;;;;;;;4996804;28;20288;-77
2023/10/05 08:49:43;;;;;;;10.45;9.45;;;;;;;;;;4993546;28;20026;-73
2023/10/05 08:52:20;;;;;;;10.27;9.43;;;;;;;;;;4989113;28;20034;-75
2023/10/05 08:54:47;;;;;;;10.52;9.57;;;;;;;;;;4990658;28;20030;-76
2023/10/05 08:57:17;;;;;;;10.60;9.52;;;;;;;;;;4991025;28;20402;-76
2023/10/05 08:59:45;;;;;;;10.23;9.20;;;;;;;;;;4993118;28;20100;-76
2023/10/05 09:02:11;;;;;;;9.40;8.50;;;;;;;;;;4991434;28;20030;-76
2023/10/05 09:04:43;;;;;;;10.60;8.80;;;;;;;;;;4990718;28;20120;-75
2023/10/05 09:07:27;;;;;;;10.00;9.05;;;;;;;;;;4994113;28;20061;-75
2023/10/05 09:09:54;;;;;;;10.30;9.38;;;;;;;;;;4998700;28;20032;-76
2023/10/05 09:12:34;;;;;;;9.70;9.00;;;;;;;;;;4991741;28;20030;-76
2023/10/05 09:18:38;;;;;;;10.48;9.55;;;;;;;;;;4987108;28;20049;-76
2023/10/05 09:20:49;;;;;;;10.35;9.32;;;;;;;;;;4991641;28;20538;-76
2023/10/05 09:23:20;;;;;;;9.68;8.88;;;;;;;;;;4991525;28;20125;-77
2023/10/05 09:25:46;;;;;;;9.32;8.55;;;;;;;;;;4988716;28;20042;-75
2023/10/05 09:28:13;;;;;;;9.18;8.48;;;;;;;;;;4987938;28;20052;-76
2023/10/05 09:30:49;;;;;;;10.23;9.02;;;;;;;;;;4991170;28;20034;-76
2023/10/05 09:33:18;;;;;;;10.70;8.98;;;;;;;;;;4993456;28;20046;-76
2023/10/05 09:35:46;;;;;;;10.55;9.20;;;;;;;;;;4988384;28;20038;-76
2023/10/05 09:38:19;;;;;;;11.10;9.40;;;;;;;;;;4987799;28;20119;-76
2023/10/05 09:40:47;;;;;;;10.93;9.48;;;;;;;;;;4992865;28;20041;-76
2023/10/05 09:43:18;;;;;;;10.48;9.25;;;;;;;;;;4990183;28;20053;-75
2023/10/05 09:45:48;;;;;;;13.25;9.90;;;;;;;;;;4991785;28;20109;-76
2023/10/05 09:48:16;;;;;;;12.90;8.98;;;;;;;;;;4988921;28;20436;-75
2023/10/05 09:50:43;;;;;;;11.57;9.10;;;;;;;;;;4991906;28;20040;-76
2023/10/05 09:53:11;;;;;;;10.70;9.13;;;;;;;;;;4987080;28;20044;-76
2023/10/05 09:55:40;;;;;;;10.68;9.55;;;;;;;;;;4985548;28;20566;-76
2023/10/05 09:58:12;;;;;;;12.23;9.95;;;;;;;;;;4990874;28;20601;-76
2023/10/05 10:03:04;;;;;;;13.60;10.05;;;;;;;;;;4987312;28;20504;-75
2023/10/05 10:05:38;;;;;;;12.57;9.55;;;;;;;;;;4993236;28;20037;-77
2023/10/05 10:08:21;;;;;;;11.85;9.85;;;;;;;;;;4989070;28;20061;-77
2023/10/05 10:11:06;;;;;;;10.70;8.60;;;;;;;;;;4997415;28;20040;-76
2023/10/05 10:13:42;;;;;;;15.63;9.45;;;;;;;;;;4992012;28;20045;-76
2023/10/05 10:16:17;;;;;;;10.90;9.57;;;;;;;;;;4990430;28;20527;-76
2023/10/05 10:18:46;;;;;;;13.10;9.07;;;;;;;;;;4988716;28;20041;-76
2023/10/05 10:21:32;;;;;;;13.65;9.38;;;;;;;;;;4987547;28;20110;-76
2023/10/05 10:24:11;;;;;;;13.57;10.10;;;;;;;;;;4987828;28;20049;-76
2023/10/05 10:27:07;;;;;;;13.10;10.50;;;;;;;;;;4990234;28;20144;-76
2023/10/05 10:29:53;;;;;;;11.90;9.55;;;;;;;;;;4990929;28;20167;-76
2023/10/05 10:32:20;;;;;;;12.13;10.55;;;;;;;;;;4988852;28;20044;-76
2023/10/05 10:35:09;;;;;;;17.33;10.38;;;;;;;;;;4994019;28;20038;-76
2023/10/05 10:37:39;;;;;;;13.23;9.77;;;;;;;;;;4989856;28;20038;-76
2023/10/05 10:45:46;;;;;;;13.93;10.27;;;;;;;;;;4985004;28;20046;-76
2023/10/05 10:48:20;;;;;;;16.52;10.38;;;;;;;;;;4986114;28;20042;-76
2023/10/05 10:50:47;;;;;;;14.77;10.00;;;;;;;;;;4987307;28;20496;-75
2023/10/05 10:53:16;;;;;;;17.38;10.27;;;;;;;;;;4989860;28;20061;-76
2023/10/05 10:55:48;;;;;;;12.10;10.05;;;;;;;;;;4995747;28;20042;-76
2023/10/05 10:58:16;;;;;;;16.48;11.10;;;;;;;;;;4987239;28;20030;-75
2023/10/05 11:00:56;;;;;;;12.57;9.93;;;;;;;;;;4991623;28;20040;-75
2023/10/05 11:03:30;;;;;;;18.13;11.05;;;;;;;;;;4990570;28;20670;-75
2023/10/05 11:05:58;;;;;;;14.00;10.77;;;;;;;;;;4992933;28;20041;-75
2023/10/05 11:08:24;;;;;;;12.80;10.77;;;;;;;;;;4987553;28;20145;-76
2023/10/05 11:11:06;;;;;;;15.23;10.43;;;;;;;;;;4986240;28;20093;-76
2023/10/05 11:13:33;;;;;;;14.75;10.73;;;;;;;;;;4986508;28;20058;-76
2023/10/05 11:16:03;;;;;;;13.48;10.65;;;;;;;;;;4992777;28;20042;-76
2023/10/05 11:18:39;;;;;;;17.75;11.45;;;;;;;;;;4995566;28;20031;-75
2023/10/05 11:21:16;;;;;;;19.00;10.40;;;;;;;;;;4990312;28;20421;-75
2023/10/05 11:23:47;;;;;;;13.75;10.32;;;;;;;;;;4997560;28;20079;-75
2023/10/05 11:26:26;;;;;;;18.63;10.90;;;;;;;;;;4985711;28;20116;-75
2023/10/05 11:28:53;;;;;;;16.55;10.50;;;;;;;;;;4987581;28;20081;-75
2023/10/05 11:31:34;;;;;;;12.88;10.10;;;;;;;;;;4990895;28;20045;-75
2023/10/05 11:34:09;;;;;;;14.20;10.02;;;;;;;;;;4990644;28;20037;-75
2023/10/05 11:36:42;;;;;;;14.55;10.52;;;;;;;;;;4994051;28;20497;-75
2023/10/05 11:39:21;;;;;;;14.73;9.98;;;;;;;;;;4991039;28;20038;-75
2023/10/05 11:41:47;;;;;;;12.18;9.93;;;;;;;;;;5001668;28;20507;-75
2023/10/05 11:44:20;;;;;;;13.70;10.40;;;;;;;;;;4999212;28;20038;-75
2023/10/05 11:46:46;;;;;;;13.98;10.50;;;;;;;;;;4998699;28;20033;-75
2023/10/05 11:49:13;;;;;;;11.50;10.30;;;;;;;;;;5000367;28;20044;-75
2023/10/05 11:51:41;;;;;;;13.20;10.52;;;;;;;;;;5000089;28;20049;-75
2023/10/05 11:54:15;;;;;;;18.30;10.70;;;;;;;;;;5000363;28;20034;-75
2023/10/05 11:56:41;;;;;;;14.02;10.20;;;;;;;;;;5002538;28;20085;-75
2023/10/05 11:59:10;;;;;;;19.08;11.30;;;;;;;;;;4992645;28;20523;-75
2023/10/05 12:01:40;;;;;;;;;;;;;;;;;;5002548;28;20033;-75
2023/10/05 12:04:08;;;;;;;13.65;10.13;;;;;;;;;;5012000;28;19920;-75
2023/10/05 12:06:39;;;;;;;12.48;10.23;;;;;;;;;;4999033;28;20034;-75
2023/10/05 12:09:27;;;;;;;14.07;11.05;;;;;;;;;;4994059;28;20032;-75
2023/10/05 12:11:58;;;;;;;12.63;10.63;;;;;;;;;;4998376;28;20122;-75
2023/10/05 12:14:27;;;;;;;14.48;10.35;;;;;;;;;;4997405;28;20061;-75
2023/10/05 12:16:57;;;;;;;12.77;9.75;;;;;;;;;;4998395;28;20095;-75
2023/10/05 12:19:29;;;;;;;11.57;9.52;;;;;;;;;;5011424;28;20038;-75
2023/10/05 12:21:57;;;;;;;14.52;10.68;;;;;;;;;;4993776;28;20057;-75
2023/10/05 12:24:23;;;;;;;11.27;10.05;;;;;;;;;;4997241;28;20039;-75
2023/10/05 12:26:50;;;;;;;17.63;10.55;;;;;;;;;;4997749;28;20033;-75
2023/10/05 12:29:16;;;;;;;13.95;10.63;;;;;;;;;;5001562;28;20028;-75
2023/10/05 12:31:47;;;;;;;14.32;10.57;;;;;;;;;;4996646;28;20042;-75
2023/10/05 12:34:16;;;;;;;15.55;11.00;;;;;;;;;;4998901;28;20061;-75
2023/10/05 12:36:51;;;;;;;16.50;10.30;;;;;;;;;;4990567;28;20065;-75
2023/10/05 12:39:18;;;;;;;13.65;10.38;;;;;;;;;;5000627;28;20129;-75
2023/10/05 12:41:48;;;;;;;15.90;10.52;;;;;;;;;;5000107;28;20044;-75
2023/10/05 12:44:14;;;;;;;16.20;10.05;;;;;;;;;;4993435;28;20039;-75
2023/10/05 12:46:45;;;;;;;11.90;9.30;;;;;;;;;;4982208;28;20045;-75
2023/10/05 12:49:15;;;;;;;13.68;10.13;;;;;;;;;;4997316;28;20023;-75
2023/10/05 12:51:42;;;;;;;12.27;10.45;;;;;;;;;;5000836;28;20034;-75
2023/10/05 12:56:53;;;;;;;13.10;9.80;;;;;;;;;;4998366;28;20030;-75
2023/10/05 12:59:19;;;;;;;12.93;9.68;;;;;;;;;;4997190;28;20042;-74
2023/10/05 13:01:46;;;;;;;12.02;10.05;;;;;;;;;;4996823;28;20498;-74
2023/10/05 13:04:13;;;;;;;13.38;10.95;;;;;;;;;;4996669;28;20084;-74
2023/10/05 13:06:40;;;;;;;11.32;10.05;;;;;;;;;;4997943;28;20037;-75
2023/10/05 13:09:13;;;;;;;16.58;10.65;;;;;;;;;;4994301;28;20030;-75
2023/10/05 13:11:40;;;;;;;13.52;10.48;;;;;;;;;;4995040;28;20032;-75
2023/10/05 13:14:08;;;;;;;12.30;10.07;;;;;;;;;;4994403;28;20033;-75
2023/10/05 13:16:40;;;;;;;11.75;10.23;;;;;;;;;;4983929;28;20518;-75
2023/10/05 13:19:09;;;;;;;12.27;10.20;;;;;;;;;;4989120;28;20050;-75
2023/10/05 13:21:39;;;;;;;13.15;10.45;;;;;;;;;;4994162;28;20388;-75
2023/10/05 13:24:12;;;;;;;13.25;10.23;;;;;;;;;;4997268;28;20036;-75
2023/10/05 13:26:44;;;;;;;15.38;10.43;;;;;;;;;;4994365;28;20065;-74
2023/10/05 13:29:16;;;;;;;10.80;9.55;;;;;;;;;;4984489;28;20084;-75
2023/10/05 13:31:43;;;;;;;13.00;10.63;;;;;;;;;;4982801;28;20038;-75
2023/10/05 13:34:09;;;;;;;16.77;10.77;;;;;;;;;;4992554;28;20584;-75
2023/10/05 13:36:36;;;;;;;11.90;10.40;;;;;;;;;;4993396;28;20038;-75
2023/10/05 13:39:09;;;;;;;16.27;11.00;;;;;;;;;;4994154;28;20058;-75
2023/10/05 13:41:44;;;;;;;12.43;10.85;;;;;;;;;;4998765;28;20042;-76
2023/10/05 13:44:10;;;;;;;16.17;10.55;;;;;;;;;;4996659;28;20476;-75
2023/10/05 13:46:42;;;;;;;14.05;10.10;;;;;;;;;;4995400;28;20639;-75
2023/10/05 13:49:08;;;;;;;14.00;10.93;;;;;;;;;;4996975;28;20030;-75
2023/10/05 13:51:34;;;;;;;11.80;10.52;;;;;;;;;;4994944;28;20168;-75
2023/10/05 13:54:06;;;;;;;11.90;10.23;;;;;;;;;;4997050;28;20034;-75
2023/10/05 13:56:32;;;;;;;13.50;10.73;;;;;;;;;;4996622;28;20125;-76
2023/10/05 13:59:01;;;;;;;12.55;10.60;;;;;;;;;;4994824;28;20195;-76
2023/10/05 14:01:40;;;;;;;11.25;10.10;;;;;;;;;;4992147;28;20072;-76
2023/10/05 14:04:06;;;;;;;12.35;10.77;;;;;;;;;;4993211;28;20552;-75
2023/10/05 14:06:32;;;;;;;12.05;10.13;;;;;;;;;;4988422;28;20045;-75
2023/10/05 14:09:04;;;;;;;11.52;10.32;;;;;;;;;;4994071;28;20034;-76
2023/10/05 14:11:34;;;;;;;12.15;10.35;;;;;;;;;;4993089;28;20514;-75
2023/10/05 14:14:00;;;;;;;13.68;10.80;;;;;;;;;;4992356;28;20066;-75
2023/10/05 14:16:26;;;;;;;18.00;10.93;;;;;;;;;;4987198;28;20042;-75
2023/10/05 14:18:51;;;;;;;16.05;10.50;;;;;;;;;;4992503;28;20042;-75
2023/10/05 14:21:20;;;;;;;13.52;10.07;;;;;;;;;;4995254;28;20117;-76
2023/10/05 14:23:50;;;;;;;12.05;10.65;;;;;;;;;;4998326;28;20037;-75
2023/10/05 14:26:15;;;;;;;11.93;10.35;;;;;;;;;;4995752;28;20026;-76
2023/10/05 14:28:41;;;;;;;11.63;10.52;;;;;;;;;;5020285;28;20072;-75
2023/10/05 14:31:06;;;;;;;14.15;10.23;;;;;;;;;;5005730;28;20042;-75
2023/10/05 14:33:33;;;;;;;12.77;10.60;;;;;;;;;;4998228;28;20137;-75
2023/10/05 14:35:58;;;;;;;13.02;11.43;;;;;;;;;;5008228;28;20484;-75
2023/10/05 14:38:25;;;;;;;14.70;10.90;;;;;;;;;;4997311;28;20037;-75
2023/10/05 14:40:53;;;;;;;13.18;10.48;;;;;;;;;;4997413;28;20553;-75
2023/10/05 14:43:20;;;;;;;13.48;11.15;;;;;;;;;;4998771;28;20492;-75
2023/10/05 14:45:48;;;;;;;13.23;10.23;;;;;;;;;;4993515;28;20176;-75
2023/10/05 14:48:14;;;;;;;12.02;10.07;;;;;;;;;;4996182;28;20646;-75
2023/10/05 14:50:40;;;;;;;14.35;10.40;;;;;;;;;;4999527;28;20041;-75
2023/10/05 14:53:11;;;;;;;17.58;10.90;;;;;;;;;;5000019;28;20037;-75
2023/10/05 14:55:45;;;;;;;12.57;10.48;;;;;;;;;;5003099;28;20049;-75
2023/10/05 14:58:13;;;;;;;11.65;10.57;;;;;;;;;;5000812;28;20574;-75
2023/10/05 15:00:39;;;;;;;10.65;9.68;;;;;;;;;;5003165;28;20033;-75
2023/10/05 15:03:05;;;;;;;12.45;10.52;;;;;;;;;;4995649;28;20511;-75